Time;durP1;ratioP1;P1;durP2;ratioP2;P2;SDS_P1;SDS_P2;PMS_P1;PMS_P2;Temp;Humidity;BMP_temperature;BMP_pressure;BME280_temperature;BME280_humidity;BME280_pressure;Samples;Min_cycle;Max_cycle;Signal;HPM_P1;HPM_P2
2022/12/14 00:00:20;;;;;;;;;;;;;;;-0.97;100.00;97908.50;5004750;28;19917;-73
2022/12/14 00:02:45;;;;;;;;;;;;;;;-1.16;100.00;97927.09;5006518;28;19913;-73
2022/12/14 00:05:11;;;;;;;;;;;;;;;-0.99;100.00;97927.88;5006033;28;20460;-73
2022/12/14 00:07:36;;;;;;;;;;;;;;;-0.70;100.00;97937.88;5004563;28;20467;-73
2022/12/14 00:10:01;;;;;;;;;;;;;;;-0.21;100.00;97921.59;5005004;28;20257;-73
2022/12/14 00:12:26;;;;;;;;;;;;;;;-0.12;100.00;97913.94;5006212;28;19922;-73
2022/12/14 00:14:52;;;;;;;;;;;;;;;0.01;100.00;97906.28;5006057;28;19914;-74
2022/12/14 00:17:17;;;;;;;;;;;;;;;0.05;100.00;97902.88;5005453;28;20336;-73
2022/12/14 00:19:42;;;;;;;;;;;;;;;0.26;100.00;97884.97;5005389;28;20343;-74
2022/12/14 00:22:07;;;;;;;;;;;;;;;-0.60;100.00;97885.56;5003981;28;19928;-73
2022/12/14 00:24:33;;;;;;;;;;;;;;;-1.09;100.00;97893.38;5005579;28;19973;-73
2022/12/14 00:26:58;;;;;;;;;;;;;;;-0.44;100.00;97894.75;5005455;28;19928;-73
2022/12/14 00:29:23;;;;;;;;;;;;;;;0.02;100.00;97888.53;5005547;28;19921;-73
2022/12/14 00:31:48;;;;;;;;;;;;;;;-0.42;100.00;97887.16;5005689;28;20299;-73
2022/12/14 00:34:14;;;;;;;;;;;;;;;0.05;100.00;97886.00;5004449;28;20313;-73
2022/12/14 00:36:39;;;;;;;;;;;;;;;0.22;100.00;97875.72;5005527;28;20268;-73
2022/12/14 00:39:04;;;;;;;;;;;;;;;0.19;100.00;97878.28;5003725;28;19973;-73
2022/12/14 00:41:29;;;;;;;;;;;;;;;0.27;100.00;97871.44;5005222;28;19921;-73
2022/12/14 00:43:55;;;;;;;;;;;;;;;0.49;100.00;97866.19;5003815;28;19914;-73
2022/12/14 00:46:20;;;;;;;;;;;;;;;0.40;100.00;97857.00;5005473;28;19917;-73
2022/12/14 00:48:46;;;;;;;;;;;;;;;0.26;100.00;97847.00;5005065;28;19975;-73
2022/12/14 00:51:13;;;;;;;;;;;;;;;0.16;100.00;97856.38;5004684;28;20457;-73
2022/12/14 00:53:38;;;;;;;;;;;;;;;0.38;100.00;97846.88;5004104;28;19928;-73
2022/12/14 00:56:05;;;;;;;;;;;;;;;0.14;100.00;97842.06;5004095;28;19914;-74
2022/12/14 00:58:30;;;;;;;;;;;;;;;-0.62;100.00;97854.41;5002915;28;19944;-73
2022/12/14 01:01:06;;;;;;;;;;;;;;;-0.65;100.00;97864.53;5004589;28;20364;-73
2022/12/14 01:03:31;;;;;;;;;;;;;;;-0.84;100.00;97868.88;5003519;28;19918;-73
2022/12/14 01:05:57;;;;;;;;;;;;;;;-0.73;100.00;97867.13;5005033;28;19924;-73
2022/12/14 01:08:22;;;;;;;;;;;;;;;-0.29;100.00;97877.81;5005115;28;19975;-73
2022/12/14 01:10:47;;;;;;;;;;;;;;;-0.06;100.00;97875.94;5003490;28;19913;-73
2022/12/14 01:13:12;;;;;;;;;;;;;;;0.18;100.00;97874.06;5004741;28;19917;-73
2022/12/14 01:15:38;;;;;;;;;;;;;;;0.13;100.00;97860.63;5004781;28;20383;-73
2022/12/14 01:18:03;;;;;;;;;;;;;;;-0.11;100.00;97857.44;5004973;28;20484;-73
2022/12/14 01:20:29;;;;;;;;;;;;;;;-0.13;100.00;97853.25;5004968;28;20324;-73
2022/12/14 01:22:57;;;;;;;;;;;;;;;-0.18;100.00;97845.69;5003631;28;19976;-73
2022/12/14 01:25:22;;;;;;;;;;;;;;;-0.16;100.00;97848.19;5003021;28;19963;-73
2022/12/14 01:27:48;;;;;;;;;;;;;;;-0.06;100.00;97829.56;5005155;28;19925;-73
2022/12/14 01:30:13;;;;;;;;;;;;;;;-0.23;100.00;97837.28;5004230;28;19925;-73
2022/12/14 01:32:38;;;;;;;;;;;;;;;0.03;100.00;97829.47;5004659;28;20008;-73
2022/12/14 01:35:04;;;;;;;;;;;;;;;0.18;100.00;97823.44;5004803;28;19921;-73
2022/12/14 01:37:29;;;;;;;;;;;;;;;0.09;100.00;97803.25;5004874;28;19971;-73
2022/12/14 01:39:54;;;;;;;;;;;;;;;-0.58;100.00;97815.63;5003744;28;19932;-74
2022/12/14 01:42:19;;;;;;;;;;;;;;;-0.76;100.00;97831.72;5003209;28;19971;-73
2022/12/14 01:44:44;;;;;;;;;;;;;;;-1.14;100.00;97830.25;5004167;28;19917;-73
2022/12/14 01:47:16;;;;;;;;;;;;;;;-1.35;100.00;97831.16;5004859;28;19922;-73
2022/12/14 01:49:45;;;;;;;;;;;;;;;-1.10;100.00;97831.06;5003976;28;20441;-73
2022/12/14 01:52:10;;;;;;;;;;;;;;;-0.82;100.00;97843.56;5003374;28;19976;-73
2022/12/14 01:54:37;;;;;;;;;;;;;;;-0.80;100.00;97845.22;5004608;28;19917;-73
2022/12/14 01:57:02;;;;;;;;;;;;;;;-1.19;100.00;97846.25;4993310;28;19925;-73
2022/12/14 01:59:30;;;;;;;;;;;;;;;-1.02;100.00;97847.03;5002993;28;19929;-73
2022/12/14 02:01:57;;;;;;;;;;;;;;;-0.52;100.00;97833.28;5002041;28;20331;-73
2022/12/14 02:04:22;;;;;;;;;;;;;;;-0.50;100.00;97818.94;5003296;28;19917;-73
2022/12/14 02:06:48;;;;;;;;;;;;;;;-0.91;100.00;97809.09;5002768;28;19917;-73
2022/12/14 02:09:14;;;;;;;;;;;;;;;-0.69;100.00;97814.84;5002822;28;19914;-73
2022/12/14 02:11:45;;;;;;;;;;;;;;;-1.20;100.00;97805.00;5003184;28;19913;-73
2022/12/14 02:14:11;;;;;;;;;;;;;;;-1.24;100.00;97805.03;5002731;28;19921;-73
2022/12/14 02:16:36;;;;;;;;;;;;;;;-1.29;100.00;97817.69;5003021;28;19925;-73
2022/12/14 02:19:02;;;;;;;;;;;;;;;-1.38;100.00;97821.06;5001675;28;19929;-73
2022/12/14 02:21:30;;;;;;;;;;;;;;;-1.37;100.00;97821.91;5004226;28;19953;-74
2022/12/14 02:24:10;;;;;;;;;;;;;;;-1.96;100.00;97819.53;5005723;28;19918;-74
2022/12/14 02:26:57;;;;;;;;;;;;;;;-1.23;100.00;97809.22;5007934;28;19924;-73
2022/12/14 02:29:41;;;;;;;;;;;;;;;-0.73;100.00;97801.41;5006366;28;19940;-73
2022/12/14 02:32:12;;;;;;;;;;;;;;;-1.10;100.00;97790.63;5006023;28;20295;-73
2022/12/14 02:34:43;;;;;;;;;;;;;;;-0.94;100.00;97777.06;5007234;28;19947;-73
2022/12/14 02:37:23;;;;;;;;;;;;;;;-0.77;100.00;97781.22;5007919;28;19917;-73
2022/12/14 02:39:54;;;;;;;;;;;;;;;-1.13;100.00;97776.34;5007776;28;19921;-73
2022/12/14 02:42:36;;;;;;;;;;;;;;;-1.48;100.00;97773.97;5006026;28;19917;-73
2022/12/14 02:45:09;;;;;;;;;;;;;;;-1.23;100.00;97773.84;5006238;28;19928;-73
2022/12/14 02:47:39;;;;;;;;;;;;;;;-1.94;100.00;97772.44;5006221;28;20304;-73
2022/12/14 02:50:08;;;;;;;;;;;;;;;-1.65;100.00;97781.59;5006180;28;19913;-73
2022/12/14 02:52:42;;;;;;;;;;;;;;;-1.73;100.00;97779.09;5006244;28;19948;-73
2022/12/14 02:55:10;;;;;;;;;;;;;;;-1.34;100.00;97762.13;5007292;28;19972;-73
2022/12/14 02:57:37;;;;;;;;;;;;;;;-0.90;100.00;97755.16;5006137;28;19921;-73
2022/12/14 03:00:03;;;;;;;;;;;;;;;-0.88;100.00;97749.25;5005710;28;19932;-73
2022/12/14 03:02:28;;;;;;;;;;;;;;;-0.88;100.00;97736.59;5006188;28;19922;-73
2022/12/14 03:04:53;;;;;;;;;;;;;;;-1.39;100.00;97715.88;5005996;28;19922;-73
2022/12/14 03:07:28;;;;;;;;;;;;;;;-1.97;100.00;97731.22;5007237;28;19921;-73
2022/12/14 03:09:53;;;;;;;;;;;;;;;-1.85;100.00;97722.78;5006660;28;19924;-73
2022/12/14 03:12:18;;;;;;;;;;;;;;;-1.34;100.00;97729.31;5007077;28;19918;-73
2022/12/14 03:14:44;;;;;;;;;;;;;;;-1.53;100.00;97728.56;5005295;28;19932;-73
2022/12/14 03:17:12;;;;;;;;;;;;;;;-0.80;100.00;97718.84;5005911;28;19918;-73
2022/12/14 03:19:38;;;;;;;;;;;;;;;-0.81;100.00;97702.00;4989271;28;20370;-73
2022/12/14 03:22:08;;;;;;;;;;;;;;;-1.26;100.00;97694.72;5005388;28;19917;-73
2022/12/14 03:24:38;;;;;;;;;;;;;;;-1.69;100.00;97694.97;5005627;28;19923;-73
2022/12/14 03:27:26;;;;;;;;;;;;;;;-2.13;100.00;97695.94;5005544;28;20013;-73
2022/12/14 03:29:52;;;;;;;;;;;;;;;-1.61;100.00;97697.44;5002840;28;20507;-73
2022/12/14 03:32:18;;;;;;;;;;;;;;;-1.69;100.00;97700.03;5006004;28;19925;-73
2022/12/14 03:34:57;;;;;;;;;;;;;;;-1.24;100.00;97686.31;5006511;28;19921;-73
2022/12/14 03:37:32;;;;;;;;;;;;;;;-1.36;100.00;97683.00;5005618;28;19925;-73
2022/12/14 03:39:57;;;;;;;;;;;;;;;-1.01;100.00;97676.88;5006125;28;19926;-73
2022/12/14 03:42:23;;;;;;;;;;;;;;;-1.60;100.00;97668.00;4988772;28;19933;-73
2022/12/14 03:45:08;;;;;;;;;;;;;;;-1.14;100.00;97671.09;5004565;28;19922;-73
2022/12/14 03:47:46;;;;;;;;;;;;;;;-0.86;100.00;97666.66;4995036;28;20360;-73
2022/12/14 03:50:13;;;;;;;;;;;;;;;-0.83;100.00;97648.09;5006527;28;19928;-73
2022/12/14 03:52:43;;;;;;;;;;;;;;;-0.68;100.00;97637.88;5005740;28;20016;-73
2022/12/14 03:55:21;;;;;;;;;;;;;;;-1.09;100.00;97631.47;5004914;28;19925;-73
2022/12/14 03:57:49;;;;;;;;;;;;;;;-1.46;100.00;97640.97;5006398;28;20368;-73
2022/12/14 04:00:21;;;;;;;;;;;;;;;-2.00;100.00;97653.88;5005753;28;19928;-73
2022/12/14 04:02:58;;;;;;;;;;;;;;;-2.17;100.00;97656.44;5004958;28;19918;-73
2022/12/14 04:05:26;;;;;;;;;;;;;;;-2.26;100.00;97658.16;5006141;28;19921;-73
2022/12/14 04:07:54;;;;;;;;;;;;;;;-1.60;100.00;97648.63;5004576;28;20384;-73
2022/12/14 04:21:25;;;;;;;;;;;;;;;-1.54;100.00;97617.47;5004767;28;19968;-73
2022/12/14 04:26:41;;;;;;;;;;;;;;;-1.47;100.00;97616.59;5005600;28;19972;-71
2022/12/14 04:32:16;;;;;;;;;;;;;;;-1.76;100.00;97610.00;5004756;28;19920;-73
2022/12/14 04:34:42;;;;;;;;;;;;;;;-1.80;100.00;97615.94;5002767;28;19948;-73
2022/12/14 04:37:08;;;;;;;;;;;;;;;-1.70;100.00;97612.50;5003977;28;20015;-73
2022/12/14 04:39:52;;;;;;;;;;;;;;;-1.74;100.00;97615.06;5003816;28;19956;-73
2022/12/14 04:42:18;;;;;;;;;;;;;;;-2.08;100.00;97616.91;5005714;28;19921;-73
2022/12/14 04:44:46;;;;;;;;;;;;;;;-2.13;100.00;97612.72;5003709;28;19917;-73
2022/12/14 04:47:11;;;;;;;;;;;;;;;-2.23;100.00;97616.13;5002653;28;19913;-73
2022/12/14 04:49:41;;;;;;;;;;;;;;;-2.18;100.00;97614.41;5003072;28;19929;-73
2022/12/14 04:52:10;;;;;;;;;;;;;;;-2.44;100.00;97628.78;5004206;28;19918;-73
2022/12/14 04:54:35;;;;;;;;;;;;;;;-2.14;100.00;97618.63;5005108;28;19933;-73
2022/12/14 04:57:04;;;;;;;;;;;;;;;-1.98;100.00;97624.44;5004800;28;20996;-73
2022/12/14 04:59:29;;;;;;;;;;;;;;;-2.31;100.00;97618.66;5002787;28;20352;-73
2022/12/14 05:02:15;;;;;;;;;;;;;;;-2.29;100.00;97616.13;5003808;28;19918;-73
2022/12/14 05:04:59;;;;;;;;;;;;;;;-2.42;100.00;97612.81;5000773;28;19925;-73
2022/12/14 05:07:26;;;;;;;;;;;;;;;-2.35;100.00;97616.16;5004602;28;19975;-73
2022/12/14 05:09:57;;;;;;;;;;;;;;;-2.53;100.00;97619.59;5002799;28;20035;-73
2022/12/14 05:12:41;;;;;;;;;;;;;;;-2.23;100.00;97616.13;5004852;28;19921;-73
2022/12/14 05:15:11;;;;;;;;;;;;;;;-1.96;100.00;97609.28;5003999;28;19918;-73
2022/12/14 05:17:37;;;;;;;;;;;;;;;-1.93;100.00;97609.28;5003733;28;20395;-73
2022/12/14 05:20:03;;;;;;;;;;;;;;;-1.60;100.00;97603.19;5003053;28;19952;-73
2022/12/14 05:22:28;;;;;;;;;;;;;;;-1.21;100.00;97585.25;4987112;28;19959;-73
2022/12/14 05:24:53;;;;;;;;;;;;;;;-1.45;100.00;97554.31;5004526;28;19956;-73
2022/12/14 05:27:19;;;;;;;;;;;;;;;-1.56;100.00;97551.00;5004182;28;19917;-73
2022/12/14 05:29:44;;;;;;;;;;;;;;;-1.78;100.00;97543.59;5004132;28;20005;-72
2022/12/14 05:32:12;;;;;;;;;;;;;;;-1.59;100.00;97538.44;5003061;28;19953;-73
2022/12/14 05:34:38;;;;;;;;;;;;;;;-1.62;100.00;97536.75;5004601;28;19928;-73
2022/12/14 05:37:03;;;;;;;;;;;;;;;-1.53;100.00;97534.16;5002891;28;19917;-73
2022/12/14 05:39:28;;;;;;;;;;;;;;;-1.85;100.00;97521.75;5003190;28;19991;-73
2022/12/14 05:41:54;;;;;;;;;;;;;;;-1.27;100.00;97513.75;5003945;28;19943;-73
2022/12/14 05:44:19;;;;;;;;;;;;;;;-1.64;100.00;97514.88;5004668;28;20012;-73
2022/12/14 05:46:44;;;;;;;;;;;;;;;-1.95;100.00;97525.19;5003076;28;20395;-73
2022/12/14 05:49:10;;;;;;;;;;;;;;;-1.98;100.00;97526.06;5003980;28;20418;-73
2022/12/14 05:51:35;;;;;;;;;;;;;;;-2.22;100.00;97527.00;5003683;28;20348;-73
2022/12/14 05:54:00;;;;;;;;;;;;;;;-2.52;100.00;97533.88;5004397;28;19997;-73
2022/12/14 05:56:26;;;;;;;;;;;;;;;-2.42;100.00;97533.81;5002663;28;19917;-73
2022/12/14 05:58:51;;;;;;;;;;;;;;;-2.27;100.00;97530.41;5005363;28;19921;-73
2022/12/14 06:01:16;;;;;;;;;;;;;;;-2.39;100.00;97528.78;5006471;28;19917;-73
2022/12/14 06:03:41;;;;;;;;;;;;;;;-2.08;100.00;97537.03;5006207;28;19917;-73
2022/12/14 06:06:08;;;;;;;;;;;;;;;-1.45;100.00;97530.75;5007528;28;20557;-72
2022/12/14 06:08:34;;;;;;;;;;;;;;;-1.55;100.00;97517.34;5007262;28;19948;-73
2022/12/14 06:11:07;;;;;;;;;;;;;;;-1.67;100.00;97515.75;5006554;28;19929;-73
2022/12/14 06:13:33;;;;;;;;;;;;;;;-1.81;100.00;97512.50;5006260;28;19921;-72
2022/12/14 06:16:10;;;;;;;;;;;;;;;-1.39;100.00;97505.44;5005616;28;19924;-73
2022/12/14 06:18:39;;;;;;;;;;;;;;;-0.97;100.00;97503.38;5007304;28;19956;-73
2022/12/14 06:21:04;;;;;;;;;;;;;;;-1.35;100.00;97497.81;5006072;28;19929;-72
2022/12/14 06:23:29;;;;;;;;;;;;;;;-1.00;100.00;97494.13;5007345;28;19918;-73
2022/12/14 06:25:55;;;;;;;;;;;;;;;-1.77;100.00;97499.00;5007503;28;19917;-73
2022/12/14 06:28:20;;;;;;;;;;;;;;;-1.28;100.00;97501.13;5005670;28;19918;-72
2022/12/14 06:30:46;;;;;;;;;;;;;;;-1.63;100.00;97501.44;5007192;28;20008;-73
2022/12/14 06:33:11;;;;;;;;;;;;;;;-1.89;100.00;97497.41;5005239;28;19921;-73
2022/12/14 06:35:41;;;;;;;;;;;;;;;-1.81;100.00;97512.50;5007036;28;19918;-73
2022/12/14 06:38:06;;;;;;;;;;;;;;;-1.83;100.00;97504.91;5005854;28;19917;-73
2022/12/14 06:40:31;;;;;;;;;;;;;;;-1.82;100.00;97515.88;5006805;28;20295;-72
2022/12/14 06:42:57;;;;;;;;;;;;;;;-1.76;100.00;97506.53;5006915;28;20447;-73
2022/12/14 06:45:22;;;;;;;;;;;;;;;-1.80;100.00;97502.41;5006079;28;20897;-72
2022/12/14 06:47:47;;;;;;;;;;;;;;;-1.37;100.00;97498.69;5007092;28;19983;-72
2022/12/14 06:50:12;;;;;;;;;;;;;;;-1.64;100.00;97502.25;5006676;28;20462;-73
2022/12/14 06:52:38;;;;;;;;;;;;;;;-1.81;100.00;97499.88;5006332;28;20664;-73
2022/12/14 06:55:04;;;;;;;;;;;;;;;-1.62;100.00;97503.09;5006823;28;20295;-73
2022/12/14 06:57:29;;;;;;;;;;;;;;;-0.98;100.00;97505.06;5005456;28;19913;-73
2022/12/14 06:59:54;;;;;;;;;;;;;;;-0.43;100.00;97486.75;5006445;28;20024;-73
2022/12/14 07:02:20;;;;;;;;;;;;;;;-0.24;100.00;97466.25;5006377;28;19968;-72
2022/12/14 07:04:45;;;;;;;;;;;;;;;-0.19;100.00;97454.38;5005546;28;19917;-73
2022/12/14 07:07:10;;;;;;;;;;;;;;;-0.23;100.00;97442.63;5006563;28;19924;-72
2022/12/14 07:09:35;;;;;;;;;;;;;;;-0.30;100.00;97430.91;5005984;28;19925;-73
2022/12/14 07:12:01;;;;;;;;;;;;;;;-0.15;100.00;97428.19;5005857;28;20298;-72
2022/12/14 07:14:26;;;;;;;;;;;;;;;-0.21;100.00;97425.72;5005108;28;20523;-72
2022/12/14 07:16:51;;;;;;;;;;;;;;;-0.50;100.00;97424.47;5006222;28;20318;-72
2022/12/14 07:19:17;;;;;;;;;;;;;;;-0.44;100.00;97444.59;5006191;28;20311;-73
2022/12/14 07:21:42;;;;;;;;;;;;;;;-0.14;100.00;97441.66;5005160;28;19926;-72
2022/12/14 07:24:07;;;;;;;;;;;;;;;-0.13;100.00;97439.13;5006322;28;20012;-73
2022/12/14 07:26:33;;;;;;;;;;;;;;;-0.56;100.00;97436.34;5006699;28;19953;-72
2022/12/14 07:29:01;;;;;;;;;;;;;;;-0.68;100.00;97439.88;5005760;28;19960;-72
2022/12/14 07:31:27;;;;;;;;;;;;;;;-1.03;100.00;97453.72;5006224;28;20469;-72
2022/12/14 07:33:53;;;;;;;;;;;;;;;-1.01;100.00;97471.41;5005228;28;19929;-72
2022/12/14 07:36:19;;;;;;;;;;;;;;;-0.24;100.00;97474.69;5005939;28;19924;-72
2022/12/14 07:38:45;;;;;;;;;;;;;;;0.01;100.00;97466.75;5005726;28;19917;-72
2022/12/14 07:41:11;;;;;;;;;;;;;;;0.09;100.00;97464.94;5004524;28;19935;-72
2022/12/14 07:43:40;;;;;;;;;;;;;;;-0.11;100.00;97462.72;5004680;28;20391;-72
2022/12/14 07:46:06;;;;;;;;;;;;;;;-0.34;100.00;97460.50;5005643;28;19921;-72
2022/12/14 07:48:31;;;;;;;;;;;;;;;-0.99;100.00;97465.47;5005776;28;19924;-72
2022/12/14 07:51:03;;;;;;;;;;;;;;;-0.85;100.00;97475.44;5004409;28;20016;-72
2022/12/14 07:53:28;;;;;;;;;;;;;;;-0.60;100.00;97482.75;5006101;28;19927;-72
2022/12/14 07:55:53;;;;;;;;;;;;;;;-0.29;100.00;97484.03;5005599;28;20372;-72
2022/12/14 07:58:19;;;;;;;;;;;;;;;-0.05;100.00;97487.06;5005701;28;19927;-72
2022/12/14 08:00:44;;;;;;;;;;;;;;;0.07;100.00;97478.47;5005702;28;19936;-73
2022/12/14 08:03:09;;;;;;;;;;;;;;;0.18;100.00;97479.13;5005773;28;19921;-72
2022/12/14 08:05:36;;;;;;;;;;;;;;;-0.03;100.00;97476.06;5005792;28;19944;-73
2022/12/14 08:08:02;;;;;;;;;;;;;;;-0.03;100.00;97476.06;5005525;28;20102;-71
2022/12/14 08:10:27;;;;;;;;;;;;;;;0.02;100.00;97472.63;5005510;28;20008;-72
2022/12/14 08:12:52;;;;;;;;;;;;;;;0.26;100.00;97481.56;5005617;28;19917;-72
2022/12/14 08:15:17;;;;;;;;;;;;;;;0.40;100.00;97479.66;5004505;28;19917;-72
2022/12/14 08:17:43;;;;;;;;;;;;;;;0.51;100.00;97487.91;5005602;28;19971;-72
2022/12/14 08:20:09;;;;;;;;;;;;;;;-0.14;100.00;97484.66;5004685;28;19975;-72
2022/12/14 08:22:34;;;;;;;;;;;;;;;-0.21;100.00;97506.69;5004773;28;19918;-72
2022/12/14 08:25:00;;;;;;;;;;;;;;;-0.40;100.00;97523.78;5005138;28;19921;-72
2022/12/14 08:27:25;;;;;;;;;;;;;;;-0.06;100.00;97528.44;5005406;28;19918;-72
2022/12/14 08:29:50;;;;;;;;;;;;;;;0.26;100.00;97535.56;4998632;28;19926;-72
2022/12/14 08:32:15;;;;;;;;;;;;;;;0.28;100.00;97540.63;5003391;28;19917;-72
2022/12/14 08:34:40;;;;;;;;;;;;;;;-0.06;100.00;97536.84;5004598;28;19966;-72
2022/12/14 08:37:06;;;;;;;;;;;;;;;-0.08;100.00;97548.69;5002991;28;19960;-72
2022/12/14 08:39:31;;;;;;;;;;;;;;;-0.14;100.00;97543.69;5004536;28;20626;-72
2022/12/14 08:41:56;;;;;;;;;;;;;;;-0.85;100.00;97556.31;5004447;28;20533;-72
2022/12/14 08:44:21;;;;;;;;;;;;;;;-0.50;100.00;97566.06;5004640;28;20477;-72
2022/12/14 08:46:47;;;;;;;;;;;;;;;0.08;100.00;97561.16;5004722;28;19917;-72
2022/12/14 08:49:12;;;;;;;;;;;;;;;0.26;100.00;97550.75;5003043;28;19917;-72
2022/12/14 08:51:37;;;;;;;;;;;;;;;0.37;100.00;97541.31;5003052;28;19967;-72
2022/12/14 08:54:02;;;;;;;;;;;;;;;0.20;100.00;97546.59;5004405;28;19921;-72
2022/12/14 08:56:28;;;;;;;;;;;;;;;-0.06;100.00;97546.97;5004589;28;20423;-72
2022/12/14 08:58:53;;;;;;;;;;;;;;;0.31;100.00;97545.63;5003947;28;20487;-72
2022/12/14 09:01:20;;;;;;;;;;;;;;;0.02;100.00;97548.56;5004249;28;20339;-72
2022/12/14 09:03:46;;;;;;;;;;;;;;;-0.25;100.00;97553.97;5002888;28;20398;-72
2022/12/14 09:06:12;;;;;;;;;;;;;;;-0.73;100.00;97558.72;5002900;28;19921;-72
2022/12/14 09:08:37;;;;;;;;;;;;;;;0.17;100.00;97554.25;5004411;28;19918;-71
2022/12/14 09:11:03;;;;;;;;;;;;;;;0.56;100.00;97548.63;5003921;28;19917;-71
2022/12/14 09:13:28;;;;;;;;;;;;;;;0.69;100.00;97542.53;5004058;28;19921;-71
2022/12/14 09:15:58;;;;;;;;;;;;;;;0.79;100.00;97538.97;5004206;28;19921;-71
2022/12/14 09:18:23;;;;;;;;;;;;;;;0.85;100.00;97529.59;5002800;28;19914;-71
2022/12/14 09:20:49;;;;;;;;;;;;;;;0.75;100.00;97522.16;5002680;28;19922;-71
2022/12/14 09:23:14;;;;;;;;;;;;;;;0.93;100.00;97527.75;5003183;28;19917;-72
2022/12/14 09:25:39;;;;;;;;;;;;;;;0.45;100.00;97527.69;5003779;28;19928;-71
2022/12/14 09:28:04;;;;;;;;;;;;;;;-0.85;100.00;97544.50;5004282;28;20036;-71
2022/12/14 09:30:30;;;;;;;;;;;;;;;-1.41;100.00;97566.06;5003705;28;19960;-72
2022/12/14 09:32:55;;;;;;;;;;;;;;;-1.33;100.00;97583.66;5003696;28;19940;-72
2022/12/14 09:35:21;;;;;;;;;;;;;;;-1.42;100.00;97594.66;5003096;28;20001;-76
2022/12/14 09:37:46;;;;;;;;;;;;;;;-1.20;100.00;97597.06;5004280;28;20391;-71
2022/12/14 09:40:12;;;;;;;;;;;;;;;-0.39;100.00;97603.03;5003422;28;19926;-71
2022/12/14 09:42:49;;;;;;;;;;;;;;;0.13;100.00;97613.38;5002709;28;19996;-71
2022/12/14 09:45:20;;;;;;;;;;;;;;;0.79;100.00;97611.63;5003691;28;19940;-71
2022/12/14 09:48:00;;;;;;;;;;;;;;;0.95;100.00;97595.31;5002921;28;20446;-73
2022/12/14 09:50:26;;;;;;;;;;;;;;;0.83;100.00;97586.19;5002691;28;20335;-73
2022/12/14 09:52:52;;;;;;;;;;;;;;;1.09;100.00;97581.56;5002664;28;19978;-73
2022/12/14 09:55:28;;;;;;;;;;;;;;;1.21;100.00;97578.84;5002968;28;19917;-73
2022/12/14 09:57:58;;;;;;;;;;;;;;;1.21;100.00;97561.09;5002570;28;19940;-73
2022/12/14 10:00:23;;;;;;;;;;;;;;;1.18;100.00;97556.06;5002286;28;20020;-73
2022/12/14 10:02:52;;;;;;;;;;;;;;;0.82;100.00;97556.66;5002709;28;20016;-72
2022/12/14 10:05:21;;;;;;;;;;;;;;;0.07;100.00;97562.84;5003350;28;19962;-72
2022/12/14 10:07:58;;;;;;;;;;;;;;;-0.16;100.00;97565.69;5004187;28;19925;-73
2022/12/14 10:10:25;;;;;;;;;;;;;;;0.14;100.00;97568.66;5003618;28;19960;-73
2022/12/14 10:12:53;;;;;;;;;;;;;;;0.30;100.00;97570.13;5003315;28;20421;-73
2022/12/14 10:15:45;;;;;;;;;;;;;;;0.94;100.00;97577.59;5003474;28;19929;-70
2022/12/14 10:18:17;;;;;;;;;;;;;;;1.48;100.00;97564.78;4995433;28;20603;-70
2022/12/14 10:20:47;;;;;;;;;;;;;;;1.34;100.00;97551.53;5002974;28;20341;-70
2022/12/14 10:23:13;;;;;;;;;;;;;;;1.29;100.00;97543.19;5004523;28;19983;-70
2022/12/14 10:25:39;;;;;;;;;;;;;;;1.00;100.00;97536.94;5001769;28;19913;-70
2022/12/14 10:28:15;;;;;;;;;;;;;;;1.02;100.00;97545.34;5002718;28;19966;-70
2022/12/14 10:30:40;;;;;;;;;;;;;;;-0.39;100.00;97548.22;5003081;28;20399;-70
2022/12/14 10:33:09;;;;;;;;;;;;;;;-0.03;100.00;97554.50;5002961;28;20008;-70
2022/12/14 10:35:36;;;;;;;;;;;;;;;-0.14;100.00;97569.00;5004297;28;20333;-70
2022/12/14 10:38:03;;;;;;;;;;;;;;;0.33;100.00;97576.84;5003047;28;19939;-70
2022/12/14 10:40:30;;;;;;;;;;;;;;;0.25;100.00;97587.06;5003932;28;19921;-72
2022/12/14 10:43:14;;;;;;;;;;;;;;;0.86;100.00;97589.56;5004000;28;20629;-72
2022/12/14 10:45:48;;;;;;;;;;;;;;;1.54;100.00;97566.41;5006697;28;20939;-72
2022/12/14 10:48:25;;;;;;;;;;;;;;;1.54;100.00;97553.72;5007310;28;20443;-72
2022/12/14 10:50:59;;;;;;;;;;;;;;;1.60;100.00;97548.53;5007589;28;20373;-71
2022/12/14 10:53:27;;;;;;;;;;;;;;;1.04;100.00;97538.56;5007050;28;19922;-71
2022/12/14 10:55:57;;;;;;;;;;;;;;;0.85;100.00;97543.09;5006229;28;19925;-71
2022/12/14 10:58:22;;;;;;;;;;;;;;;1.15;100.00;97545.97;5006233;28;20319;-71
2022/12/14 11:00:53;;;;;;;;;;;;;;;1.15;100.00;97531.59;5007500;28;19951;-71
2022/12/14 11:03:19;;;;;;;;;;;;;;;0.79;100.00;97533.06;5007472;28;19917;-71
2022/12/14 11:05:54;;;;;;;;;;;;;;;1.30;100.00;97539.78;5007393;28;19921;-71
2022/12/14 11:08:38;;;;;;;;;;;;;;;1.78;100.00;97521.91;5005843;28;19914;-71
2022/12/14 11:11:07;;;;;;;;;;;;;;;1.70;100.00;97509.41;5007087;28;20596;-71
2022/12/14 11:13:32;;;;;;;;;;;;;;;1.64;100.00;97507.84;5006108;28;19914;-71
2022/12/14 11:15:58;;;;;;;;;;;;;;;1.56;100.00;97512.22;5007003;28;19967;-71
2022/12/14 11:18:28;;;;;;;;;;;;;;;1.70;100.00;97506.88;5005422;28;20045;-71
2022/12/14 11:20:58;;;;;;;;;;;;;;;1.87;100.00;97493.81;5005757;28;19922;-71
2022/12/14 11:23:24;;;;;;;;;;;;;;;2.43;100.00;97475.63;5007320;28;19952;-71
2022/12/14 11:25:50;;;;;;;;;;;;;;;2.67;100.00;97469.94;5006971;28;19917;-71
2022/12/14 11:28:25;;;;;;;;;;;;;;;2.12;100.00;97462.81;5004222;28;20280;-71
2022/12/14 11:31:01;;;;;;;;;;;;;;;2.74;100.00;97455.38;5004977;28;19914;-71
2022/12/14 11:33:39;;;;;;;;;;;;;;;2.69;100.00;97445.34;5006486;28;19917;-71
2022/12/14 11:36:05;;;;;;;;;;;;;;;2.92;100.00;97432.03;5006807;28;19960;-71
2022/12/14 11:38:30;;;;;;;;;;;;;;;3.00;100.00;97420.81;5004625;28;19932;-71
2022/12/14 11:40:56;;;;;;;;;;;;;;;2.77;100.00;97417.16;5005123;28;19971;-71
2022/12/14 11:43:25;;;;;;;;;;;;;;;2.79;100.00;97397.63;5005318;28;20390;-72
2022/12/14 11:45:50;;;;;;;;;;;;;;;2.97;100.00;97395.47;5004942;28;20024;-72
2022/12/14 11:48:16;;;;;;;;;;;;;;;2.73;100.00;97400.31;5006295;28;20014;-71
2022/12/14 11:50:41;;;;;;;;;;;;;;;2.87;100.00;97395.72;5006402;28;19964;-72
2022/12/14 11:53:11;;;;;;;;;;;;;;;3.25;100.00;97386.19;5004739;28;20364;-71
2022/12/14 11:55:39;;;;;;;;;;;;;;;3.22;100.00;97381.19;5005160;28;19914;-71
2022/12/14 11:58:05;;;;;;;;;;;;;;;2.71;100.00;97379.19;5005397;28;19925;-71
2022/12/14 12:00:48;;;;;;;;;;;;;;;2.91;100.00;97378.66;5004665;28;20269;-72
2022/12/14 12:03:15;;;;;;;;;;;;;;;2.14;100.00;97388.25;5006247;28;19979;-71
2022/12/14 12:05:40;;;;;;;;;;;;;;;1.62;100.00;97402.13;5006363;28;19921;-71
2022/12/14 12:08:08;;;;;;;;;;;;;;;1.36;100.00;97413.69;5004654;28;19921;-72
2022/12/14 12:10:36;;;;;;;;;;;;;;;1.06;100.00;97432.91;5004595;28;20463;-72
2022/12/14 12:13:06;;;;;;;;;;;;;;;1.17;100.00;97438.59;5004932;28;19925;-71
2022/12/14 12:15:35;;;;;;;;;;;;;;;2.05;100.00;97429.97;5004183;28;19976;-72
2022/12/14 12:18:02;;;;;;;;;;;;;;;2.70;100.00;97410.56;5004601;28;19959;-71
2022/12/14 12:20:34;;;;;;;;;;;;;;;3.01;100.00;97390.25;5005521;28;19917;-71
2022/12/14 12:23:04;;;;;;;;;;;;;;;3.43;100.00;97394.16;5005295;28;20008;-72
2022/12/14 12:25:30;;;;;;;;;;;;;;;3.19;100.00;97399.06;5006072;28;20313;-72
2022/12/14 12:28:07;;;;;;;;;;;;;;;3.12;100.00;97389.94;5005042;28;19963;-72
2022/12/14 12:30:33;;;;;;;;;;;;;;;3.41;100.00;97390.81;5004313;28;19921;-72
2022/12/14 12:33:01;;;;;;;;;;;;;;;3.30;100.00;97397.03;5004427;28;20295;-74
2022/12/14 12:35:38;;;;;;;;;;;;;;;2.98;100.00;97412.38;5004649;28;19957;-74
2022/12/14 12:38:09;;;;;;;;;;;;;;;3.37;100.00;97404.50;5005844;28;19928;-74
2022/12/14 12:40:50;;;;;;;;;;;;;;;3.40;100.00;97391.69;5004406;28;19921;-74
2022/12/14 12:43:18;;;;;;;;;;;;;;;3.55;100.00;97386.16;5004686;28;20414;-74
2022/12/14 12:45:47;;;;;;;;;;;;;;;3.58;100.00;97373.34;5004747;28;19920;-73
2022/12/14 12:48:23;;;;;;;;;;;;;;;3.22;100.00;97371.00;5003906;28;20023;-73
2022/12/14 12:50:50;;;;;;;;;;;;;;;2.68;100.00;97394.53;5002434;28;20008;-74
2022/12/14 12:53:20;;;;;;;;;;;;;;;2.32;100.00;97427.59;4997425;28;20350;-74
2022/12/14 12:55:49;;;;;;;;;;;;;;;2.56;100.00;97443.13;5002517;28;19917;-74
2022/12/14 12:58:24;;;;;;;;;;;;;;;2.59;100.00;97458.31;5003783;28;20884;-74
2022/12/14 13:00:50;;;;;;;;;;;;;;;3.04;100.00;97452.91;5005024;28;20414;-74